Pagrindinis puslapis
METAR-TAF:

METAR-TAF

Oro uostai :

Panama Pacifico, Panama

platuma: 08-55N, ilguma: 079-36W, Aukštis: 16 m

Dabartinis oras

Ataskaita buvo paskelbta 22 minutes, ne 23:00 UTC
Ramus vėjas
Temperatūra 28°C
Drėgmė 89%
Slėgis 1007 hPa
Matomumas 10 km arba daugiau
Mažai debesys ne aukštis 1700 ft
Išsisklaidę debesys ne aukštis 7000 ft

METAR: MPPA 022300Z 00000KT 9999 FEW017 SCT070 28/26 Q1007

Laikas: 18:22 (23:22 UTC)

Prognozė

Ataskaita buvo paskelbta 6 valandos ir 22 minutes, ne 17:00 UTC
Prognozė galioja nuo 02 metu 18 UTC su 03 metu 24 UTC
Vėjas 6 kt iš Šiaurės
Matomumas 10 km arba daugiau
Išsisklaidę debesys ne aukštis 1800 ft
Tikimybė 30%
nuo 02 metu 18 UTC su 02 metu 22 UTC
Vėjas 8 kt iš Pietų/Pietvakarių
Matomumas: 6000 m
Išsisklaidę debesys ne aukštis 1500 ft, Liūtiniai kamuoliniai debesys.
Su prošvaistėmis ne aukštis 8000 ft
perkūnija, lietus
Laikinai
nuo 03 metu 02 UTC su 03 metu 06 UTC
Vėjas kt iš Šiaurės

TAF: MPPA 021700Z 0218/0324 36006KT 9999 SCT018 PROB30 0218/0222 20008KT 6000 TSRA SCT015CB BKN080 TEMPO 0302/0306 00000KT

Orai ataskaitas ir orų prognozės (METAR, TAF).

turimą stotys yra geltonos ir raudonos taškus žemėlapyje.

Perkelti pele per norėdami pamatyti stoties vardą.

Tada spustelėkite, norėdami matyti oro stebėjimo ir prognozės.

Norėdami pakeisti žemėlapį: spustelėkite ant žalios mygtukų su juodo kryžiaus žemyn,; žalią mygtuką su brūkšneliu, jei norite nutolinti; arba žalių rodyklių gretimoms žemėlapius.


METAR-TAF: